createdAt,value
2018-07-24T06:36:27.020Z,12.20
2018-07-24T06:38:55.985Z,12.67
2018-07-24T06:41:24.959Z,13.60
2018-07-24T06:43:54.087Z,11.60
2018-07-24T06:46:23.104Z,12.30
2018-07-24T06:48:52.033Z,13.83
2018-07-24T06:51:21.099Z,13.00
2018-07-24T06:53:50.070Z,11.60
2018-07-24T06:56:19.025Z,12.87
2018-07-24T06:58:47.950Z,11.77
2018-07-24T07:01:17.048Z,13.03
2018-07-24T07:03:46.018Z,12.70
2018-07-24T07:06:15.078Z,13.33
2018-07-24T07:08:44.037Z,11.73
2018-07-24T07:11:13.673Z,13.10
2018-07-24T07:13:42.640Z,11.80
2018-07-24T07:16:11.643Z,11.97
2018-07-24T07:18:40.653Z,10.93
2018-07-24T07:21:09.650Z,12.40
2018-07-24T07:23:38.615Z,11.40
2018-07-24T07:26:08.469Z,12.60
2018-07-24T07:28:37.666Z,10.87
2018-07-24T07:31:06.669Z,10.80
2018-07-24T07:33:35.972Z,11.10
2018-07-24T07:36:04.922Z,11.13
2018-07-24T07:38:34.057Z,11.07
2018-07-24T07:41:03.048Z,12.23
2018-07-24T07:43:32.801Z,11.50
2018-07-24T07:46:01.951Z,10.47
2018-07-24T07:48:31.184Z,11.37
2018-07-24T07:51:00.175Z,12.23
2018-07-24T07:53:29.133Z,11.00
2018-07-24T07:55:58.965Z,10.60
2018-07-24T07:58:28.845Z,12.03
2018-07-24T08:00:58.138Z,11.33
2018-07-24T08:03:27.237Z,10.77
2018-07-24T08:05:56.656Z,10.97
2018-07-24T08:08:25.594Z,10.73
2018-07-24T08:10:54.796Z,10.93
2018-07-24T08:13:23.812Z,10.20
2018-07-24T08:15:52.771Z,10.70
2018-07-24T08:18:21.692Z,11.20
2018-07-24T08:20:50.970Z,9.13
2018-07-24T08:23:19.929Z,9.63
2018-07-24T08:25:48.845Z,8.97
2018-07-24T08:28:17.800Z,8.93
2018-07-24T08:30:46.791Z,9.87
2018-07-24T08:33:15.749Z,9.43
2018-07-24T08:35:44.667Z,9.43
2018-07-24T08:38:13.224Z,8.93
2018-07-24T08:40:42.197Z,8.87
2018-07-24T08:43:11.189Z,9.67
2018-07-24T08:45:40.129Z,8.57
2018-07-24T08:48:09.134Z,8.17
2018-07-24T08:50:38.037Z,7.70
2018-07-24T08:53:07.316Z,6.70
2018-07-24T08:55:36.563Z,8.00
2018-07-24T08:58:05.246Z,7.80
2018-07-24T09:00:34.305Z,7.30
2018-07-24T09:03:03.362Z,7.97
2018-07-24T09:05:32.341Z,7.60
2018-07-24T09:08:01.246Z,7.97
2018-07-24T09:10:30.238Z,7.77
2018-07-24T09:12:59.201Z,6.73
2018-07-24T09:15:28.258Z,6.97
2018-07-24T09:17:57.216Z,7.33
2018-07-24T09:20:26.181Z,7.53
2018-07-24T09:22:55.100Z,5.70
2018-07-24T09:25:24.051Z,5.87
2018-07-24T09:27:53.045Z,5.90
2018-07-24T09:30:21.981Z,5.93
2018-07-24T09:32:50.968Z,4.97
2018-07-24T09:35:19.941Z,5.20
2018-07-24T09:37:48.917Z,6.50
2018-07-24T09:40:18.059Z,6.03
2018-07-24T09:42:47.017Z,5.23
2018-07-24T09:45:15.977Z,5.83
2018-07-24T09:47:45.052Z,5.80
2018-07-24T09:50:14.033Z,6.03
2018-07-24T09:52:42.962Z,5.43
2018-07-24T09:55:11.946Z,6.37
2018-07-24T09:57:40.872Z,5.83
2018-07-24T10:00:09.867Z,6.37
2018-07-24T10:02:39.236Z,5.70
2018-07-24T10:05:08.651Z,5.90
2018-07-24T10:07:37.850Z,6.57
2018-07-24T10:10:06.907Z,5.60
2018-07-24T10:12:35.878Z,6.30
2018-07-24T10:15:05.199Z,7.08
2018-07-24T10:17:34.163Z,6.70
2018-07-24T10:20:03.134Z,7.30
2018-07-24T10:22:32.114Z,7.30
2018-07-24T10:25:01.130Z,6.83
2018-07-24T10:27:30.111Z,6.87
2018-07-24T10:29:59.066Z,7.40
2018-07-24T10:32:28.068Z,6.15
2018-07-24T10:34:57.065Z,7.47
2018-07-24T10:37:26.065Z,6.03
2018-07-24T10:39:54.973Z,6.30
2018-07-24T10:42:23.938Z,5.70
2018-07-24T10:44:52.902Z,5.40
2018-07-24T10:47:21.965Z,6.15
2018-07-24T10:49:50.902Z,5.62
2018-07-24T10:52:19.886Z,4.92
2018-07-24T10:54:48.878Z,5.28
2018-07-24T10:57:17.803Z,5.80
2018-07-24T10:59:46.865Z,5.22
2018-07-24T11:02:15.859Z,4.33
2018-07-24T11:04:44.829Z,4.40
2018-07-24T11:07:13.807Z,3.90
2018-07-24T11:09:42.800Z,3.85
2018-07-24T11:12:11.738Z,4.28
2018-07-24T11:14:40.766Z,3.92
2018-07-24T11:17:09.684Z,4.70
2018-07-24T11:19:38.733Z,3.40
2018-07-24T11:22:07.806Z,3.22
2018-07-24T11:24:36.687Z,3.62
2018-07-24T11:27:05.736Z,3.98
2018-07-24T11:29:34.662Z,3.92
2018-07-24T11:32:03.663Z,3.95
2018-07-24T11:34:32.621Z,4.15
2018-07-24T11:37:01.557Z,3.00
2018-07-24T11:39:30.500Z,3.85
2018-07-24T11:41:59.450Z,3.20
2018-07-24T11:44:28.369Z,3.20
2018-07-24T11:46:57.347Z,3.55
2018-07-24T11:49:26.290Z,3.90
2018-07-24T11:51:55.300Z,4.00
2018-07-24T11:54:24.319Z,4.00
2018-07-24T11:56:53.267Z,3.72
2018-07-24T11:59:22.264Z,3.02
2018-07-24T12:01:51.195Z,3.60
2018-07-24T12:04:20.330Z,3.25
2018-07-24T12:06:49.281Z,2.90
2018-07-24T12:09:18.363Z,3.00
2018-07-24T12:11:47.354Z,2.72
2018-07-24T12:14:16.333Z,2.72
2018-07-24T12:16:45.329Z,3.30
2018-07-24T12:19:14.337Z,2.20
2018-07-24T12:21:43.244Z,2.85
2018-07-24T12:24:12.182Z,2.75
2018-07-24T12:26:41.438Z,2.05
2018-07-24T12:29:10.406Z,2.22
2018-07-24T12:31:39.389Z,3.10
2018-07-24T12:34:08.301Z,2.95
2018-07-24T12:36:37.302Z,3.00
2018-07-24T12:39:08.911Z,2.70
2018-07-24T12:41:37.926Z,2.95
2018-07-24T12:44:06.963Z,2.92
2018-07-24T12:46:35.988Z,2.85
2018-07-24T12:49:04.518Z,3.08
2018-07-24T12:51:33.438Z,3.20
2018-07-24T12:54:02.409Z,3.05
2018-07-24T12:56:31.342Z,3.02
2018-07-24T12:59:00.301Z,3.02
2018-07-24T13:01:29.216Z,3.00
2018-07-24T13:03:58.222Z,2.62
2018-07-24T13:06:27.214Z,3.02
2018-07-24T13:08:56.203Z,2.30
2018-07-24T13:11:25.173Z,2.40
2018-07-24T13:13:54.160Z,3.50
2018-07-24T13:16:23.225Z,2.30
2018-07-24T13:18:52.218Z,2.90
2018-07-24T13:21:21.171Z,3.30
2018-07-24T13:23:50.109Z,3.12
2018-07-24T13:26:19.098Z,2.90
2018-07-24T13:28:48.022Z,2.55
2018-07-24T13:31:16.968Z,2.25
2018-07-24T13:33:45.881Z,2.95
2018-07-24T13:36:14.842Z,2.70
2018-07-24T13:38:43.961Z,2.35
2018-07-24T13:41:12.950Z,3.47
2018-07-24T13:43:41.916Z,3.42
2018-07-24T13:46:10.894Z,3.22
2018-07-24T13:48:39.818Z,3.83
2018-07-24T13:51:08.366Z,2.50
2018-07-24T13:53:37.314Z,3.10
2018-07-24T13:56:06.511Z,2.70
2018-07-24T13:58:35.453Z,3.15
2018-07-24T14:01:04.451Z,2.72
2018-07-24T14:03:33.430Z,3.10
2018-07-24T14:06:02.372Z,3.08
2018-07-24T14:08:31.360Z,2.50
2018-07-24T14:11:00.306Z,3.10
2018-07-24T14:13:29.298Z,2.90
2018-07-24T14:15:58.258Z,2.83
2018-07-24T14:18:27.189Z,3.12
2018-07-24T14:20:56.138Z,2.72
2018-07-24T14:23:25.050Z,2.90
2018-07-24T14:25:54.030Z,2.70
2018-07-24T14:28:23.001Z,3.27
2018-07-24T14:30:52.173Z,3.10
2018-07-24T14:33:21.294Z,2.67
2018-07-24T14:35:50.287Z,3.02
2018-07-24T14:38:19.249Z,3.12
2018-07-24T14:40:48.195Z,3.80
2018-07-24T14:43:17.149Z,3.17
2018-07-24T14:45:46.123Z,3.30
2018-07-24T14:48:15.078Z,2.47
2018-07-24T14:50:44.001Z,2.87
2018-07-24T14:53:13.038Z,3.00
2018-07-24T14:58:25.305Z,2.85
2018-07-24T15:00:54.268Z,3.20
2018-07-24T15:03:22.879Z,2.70
2018-07-24T15:09:47.588Z,2.87
2018-07-24T15:12:16.572Z,2.80
2018-07-24T15:14:45.874Z,2.55
2018-07-24T15:17:14.851Z,3.27
2018-07-24T15:19:43.897Z,2.60
2018-07-24T15:22:13.057Z,2.95
2018-07-24T15:24:41.993Z,3.37
2018-07-24T15:27:11.329Z,2.95
2018-07-24T15:29:40.271Z,2.85
2018-07-24T15:32:09.211Z,3.33
2018-07-24T15:34:41.713Z,3.17
2018-07-24T15:37:10.586Z,2.58
2018-07-24T15:39:39.978Z,3.90
2018-07-24T15:42:08.967Z,2.87
2018-07-24T15:44:37.902Z,3.10
2018-07-24T15:47:06.986Z,2.60
2018-07-24T15:49:35.940Z,2.70
2018-07-24T15:52:04.936Z,2.95
2018-07-24T15:54:33.840Z,3.12
2018-07-24T15:57:02.788Z,3.27
2018-07-24T15:59:31.727Z,2.95
2018-07-24T16:02:00.691Z,2.65
2018-07-24T16:04:29.656Z,3.08
2018-07-24T16:06:58.595Z,3.20
2018-07-24T16:09:27.599Z,3.02
2018-07-24T16:11:57.362Z,2.65
2018-07-24T16:14:26.334Z,2.65
2018-07-24T16:16:55.275Z,2.90
2018-07-24T16:19:24.282Z,2.83
2018-07-24T16:21:53.210Z,2.25
2018-07-24T16:24:22.166Z,3.75
2018-07-24T16:26:51.128Z,2.70
2018-07-24T16:29:20.186Z,2.75
2018-07-24T16:31:49.191Z,3.20
2018-07-24T16:34:18.176Z,2.98
2018-07-24T16:36:47.194Z,3.02
2018-07-24T16:39:16.115Z,3.00
2018-07-24T16:41:45.141Z,3.25
2018-07-24T16:44:14.083Z,3.22
2018-07-24T16:46:43.052Z,2.87
2018-07-24T16:49:12.889Z,2.92
2018-07-24T16:51:41.882Z,3.35
2018-07-24T16:54:10.928Z,3.35
2018-07-24T16:56:39.919Z,4.08
2018-07-24T16:59:08.832Z,3.17
2018-07-24T17:01:37.789Z,3.20
2018-07-24T17:04:06.842Z,2.90
2018-07-24T17:06:35.853Z,2.90
2018-07-24T17:09:07.810Z,3.00
2018-07-24T17:11:36.834Z,2.92
2018-07-24T17:14:05.899Z,3.90
2018-07-24T17:16:34.918Z,3.30
2018-07-24T17:19:03.855Z,2.98
2018-07-24T17:21:32.840Z,2.95
2018-07-24T17:24:01.805Z,2.83
2018-07-24T17:26:31.514Z,3.05
2018-07-24T17:29:00.892Z,2.98
2018-07-24T17:31:29.805Z,2.92
2018-07-24T17:33:58.405Z,4.00
2018-07-24T17:36:27.338Z,3.50
2018-07-24T17:38:57.101Z,3.20
2018-07-24T17:41:26.368Z,3.58
2018-07-24T17:43:55.947Z,3.92
2018-07-24T17:46:24.928Z,2.90
2018-07-24T17:48:54.340Z,3.25
2018-07-24T17:51:23.885Z,3.15
2018-07-24T17:53:52.821Z,3.65
2018-07-24T17:56:21.878Z,3.30
2018-07-24T17:58:50.803Z,2.72
2018-07-24T18:01:19.790Z,3.70
2018-07-24T18:03:48.841Z,3.90
2018-07-24T18:06:17.837Z,3.45
2018-07-24T18:08:46.792Z,3.75
2018-07-24T18:11:15.717Z,3.90
2018-07-24T18:13:44.694Z,4.78
2018-07-24T18:16:13.843Z,4.35
2018-07-24T18:18:42.853Z,4.65
2018-07-24T18:21:11.823Z,3.52
2018-07-24T18:23:40.935Z,3.80
2018-07-24T18:26:09.851Z,4.10
2018-07-24T18:28:38.506Z,3.80
2018-07-24T18:31:07.600Z,4.10
2018-07-24T18:33:36.844Z,3.55
2018-07-24T18:36:06.102Z,3.35
2018-07-24T18:38:35.002Z,3.98
2018-07-24T18:41:04.134Z,3.50
2018-07-24T18:43:33.051Z,3.65
2018-07-24T18:46:02.009Z,3.80
2018-07-24T18:48:31.662Z,4.28
2018-07-24T18:51:00.452Z,4.53
2018-07-24T18:53:29.369Z,4.28
2018-07-24T18:55:59.066Z,4.80
2018-07-24T18:58:29.058Z,5.42
2018-07-24T19:00:58.969Z,4.92
2018-07-24T19:03:27.885Z,5.00
2018-07-24T19:05:56.773Z,5.35
2018-07-24T19:08:25.732Z,4.55
2018-07-24T19:10:54.667Z,5.05
2018-07-24T19:13:23.601Z,4.67
2018-07-24T19:15:52.591Z,4.90
2018-07-24T19:18:21.553Z,5.50
2018-07-24T19:20:50.583Z,6.10
2018-07-24T19:23:19.582Z,5.60
2018-07-24T19:25:48.498Z,6.70
2018-07-24T19:28:17.499Z,7.17
2018-07-24T19:30:47.636Z,6.65
2018-07-24T19:33:16.637Z,7.28
2018-07-24T19:35:45.642Z,7.92
2018-07-24T19:38:14.855Z,7.22
2018-07-24T19:40:43.795Z,6.58
2018-07-24T19:43:12.701Z,6.45
2018-07-24T19:45:41.650Z,6.15
2018-07-24T19:48:10.812Z,5.20
2018-07-24T19:50:39.773Z,6.72
2018-07-24T19:53:08.770Z,5.87
2018-07-24T19:55:37.746Z,5.75
2018-07-24T19:58:06.858Z,7.75
2018-07-24T20:00:36.072Z,7.47
2018-07-24T20:03:05.172Z,10.05
2018-07-24T20:05:34.160Z,10.65
2018-07-24T20:08:03.315Z,10.23
2018-07-24T20:10:32.339Z,10.00
2018-07-24T20:13:01.490Z,9.23
2018-07-24T20:15:30.911Z,9.13
2018-07-24T20:17:59.887Z,7.35
2018-07-24T20:20:29.276Z,6.87
2018-07-24T20:22:58.936Z,7.20
2018-07-24T20:25:28.080Z,6.62
2018-07-24T20:27:57.042Z,6.92
2018-07-24T20:30:25.982Z,8.00
2018-07-24T20:32:54.915Z,8.25
2018-07-24T20:35:23.910Z,7.05
2018-07-24T20:37:53.000Z,6.97
2018-07-24T20:40:22.039Z,7.65
2018-07-24T20:42:50.999Z,7.67
2018-07-24T20:45:19.969Z,8.50
2018-07-24T20:47:48.881Z,6.00
2018-07-24T20:50:17.913Z,7.78
2018-07-24T20:52:49.223Z,8.00
2018-07-24T20:55:18.445Z,6.78
2018-07-24T20:57:47.413Z,6.55
2018-07-24T21:00:16.457Z,6.67
2018-07-24T21:02:45.452Z,8.00
2018-07-24T21:05:14.374Z,7.80
2018-07-24T21:07:43.387Z,7.97
2018-07-24T21:10:17.984Z,8.10
2018-07-24T21:12:48.254Z,6.53
2018-07-24T21:15:18.021Z,7.28
2018-07-24T21:17:47.250Z,6.47
2018-07-24T21:20:16.193Z,7.47
2018-07-24T21:22:45.180Z,6.22
2018-07-24T21:25:14.098Z,7.33
2018-07-24T21:27:43.043Z,6.80
2018-07-24T21:30:11.968Z,7.40
2018-07-24T21:32:41.031Z,7.95
2018-07-24T21:35:10.033Z,7.15
2018-07-24T21:37:39.090Z,7.67
2018-07-24T21:40:08.026Z,7.25
2018-07-24T21:42:37.043Z,7.50
2018-07-24T21:45:06.031Z,7.45
2018-07-24T21:47:35.064Z,7.37
2018-07-24T21:50:04.105Z,7.30
2018-07-24T21:52:33.028Z,8.13
2018-07-24T21:55:03.102Z,7.35
2018-07-24T21:57:32.059Z,5.83
2018-07-24T22:00:01.085Z,7.20
2018-07-24T22:02:29.994Z,7.08
2018-07-24T22:04:58.990Z,6.15
2018-07-24T22:07:27.930Z,5.97
2018-07-24T22:09:56.871Z,7.30
2018-07-24T22:12:25.814Z,6.90
2018-07-24T22:14:54.746Z,6.50
2018-07-24T22:17:24.490Z,6.55
2018-07-24T22:19:53.429Z,7.47
2018-07-24T22:22:22.382Z,8.30
2018-07-24T22:24:51.338Z,13.85
2018-07-24T22:27:20.305Z,8.58
2018-07-24T22:29:49.236Z,7.70
2018-07-24T22:32:18.215Z,7.28
2018-07-24T22:34:47.185Z,7.45
2018-07-24T22:37:16.106Z,7.20
2018-07-24T22:39:45.085Z,7.08
2018-07-24T22:42:13.978Z,6.62
2018-07-24T22:44:42.920Z,8.10
2018-07-24T22:47:11.814Z,7.37
2018-07-24T22:49:40.767Z,7.28
2018-07-24T22:52:09.706Z,7.15
2018-07-24T22:54:38.644Z,7.60
2018-07-24T22:57:07.562Z,7.78
2018-07-24T22:59:36.530Z,8.30
2018-07-24T23:02:05.643Z,8.53
2018-07-24T23:04:34.562Z,8.70
2018-07-24T23:07:03.488Z,7.60
2018-07-24T23:09:32.443Z,7.75
2018-07-24T23:12:01.375Z,6.75
2018-07-24T23:14:30.278Z,7.05
2018-07-24T23:16:59.368Z,6.92
2018-07-24T23:19:28.574Z,6.37
2018-07-24T23:21:58.334Z,7.70
2018-07-24T23:24:27.515Z,7.90
2018-07-24T23:26:56.471Z,6.08
2018-07-24T23:29:25.429Z,6.87
2018-07-24T23:31:54.390Z,6.65
2018-07-24T23:34:23.278Z,6.10
2018-07-24T23:36:52.183Z,7.45
2018-07-24T23:39:21.107Z,7.97
2018-07-24T23:41:49.641Z,7.05
2018-07-24T23:44:18.567Z,6.85
2018-07-24T23:46:47.495Z,7.70
2018-07-24T23:49:16.455Z,7.08
2018-07-24T23:51:45.624Z,7.10
2018-07-24T23:54:14.558Z,6.00
2018-07-24T23:56:43.472Z,7.40
2018-07-24T23:59:12.402Z,5.60
